sensor_id;sensor_type;location;lat;lon;timestamp;P1;durP1;ratioP1;P2;durP2;ratioP2
9934;SDS011;5006;41.828;23.478;2023-02-02T00:00:56;2.15;;;1.40;;
9934;SDS011;5006;41.828;23.478;2023-02-02T00:02:02;3.10;;;1.17;;
9934;SDS011;5006;41.828;23.478;2023-02-02T00:03:07;4.00;;;1.40;;
9934;SDS011;5006;41.828;23.478;2023-02-02T00:04:14;1.85;;;1.20;;
9934;SDS011;5006;41.828;23.478;2023-02-02T00:05:22;3.45;;;1.40;;
9934;SDS011;5006;41.828;23.478;2023-02-02T00:06:28;2.45;;;1.75;;
9934;SDS011;5006;41.828;23.478;2023-02-02T00:07:35;3.70;;;2.42;;
9934;SDS011;5006;41.828;23.478;2023-02-02T00:08:41;3.33;;;2.03;;
9934;SDS011;5006;41.828;23.478;2023-02-02T00:09:47;3.35;;;1.60;;
9934;SDS011;5006;41.828;23.478;2023-02-02T00:10:52;2.53;;;1.40;;
9934;SDS011;5006;41.828;23.478;2023-02-02T00:11:58;2.10;;;1.60;;
9934;SDS011;5006;41.828;23.478;2023-02-02T00:13:04;2.88;;;1.58;;
9934;SDS011;5006;41.828;23.478;2023-02-02T00:14:09;3.20;;;1.60;;
9934;SDS011;5006;41.828;23.478;2023-02-02T00:15:15;2.63;;;1.80;;
9934;SDS011;5006;41.828;23.478;2023-02-02T00:16:32;2.08;;;1.40;;
9934;SDS011;5006;41.828;23.478;2023-02-02T00:17:40;3.22;;;1.70;;
9934;SDS011;5006;41.828;23.478;2023-02-02T00:18:47;3.08;;;1.50;;
9934;SDS011;5006;41.828;23.478;2023-02-02T00:19:51;2.67;;;1.40;;
9934;SDS011;5006;41.828;23.478;2023-02-02T00:20:57;2.88;;;1.70;;
9934;SDS011;5006;41.828;23.478;2023-02-02T00:22:03;2.72;;;1.45;;
9934;SDS011;5006;41.828;23.478;2023-02-02T00:23:09;3.30;;;1.50;;
9934;SDS011;5006;41.828;23.478;2023-02-02T00:24:15;2.03;;;1.10;;
9934;SDS011;5006;41.828;23.478;2023-02-02T00:25:22;2.03;;;1.23;;
9934;SDS011;5006;41.828;23.478;2023-02-02T00:26:26;2.05;;;1.30;;
9934;SDS011;5006;41.828;23.478;2023-02-02T00:27:32;1.52;;;1.10;;
9934;SDS011;5006;41.828;23.478;2023-02-02T00:28:37;2.42;;;1.10;;
9934;SDS011;5006;41.828;23.478;2023-02-02T00:29:42;2.28;;;1.20;;
9934;SDS011;5006;41.828;23.478;2023-02-02T00:30:49;1.73;;;1.25;;
9934;SDS011;5006;41.828;23.478;2023-02-02T00:31:54;2.38;;;1.23;;
9934;SDS011;5006;41.828;23.478;2023-02-02T00:33:00;2.47;;;1.48;;
9934;SDS011;5006;41.828;23.478;2023-02-02T00:34:04;3.42;;;1.45;;
9934;SDS011;5006;41.828;23.478;2023-02-02T00:35:11;2.38;;;1.42;;
9934;SDS011;5006;41.828;23.478;2023-02-02T00:36:17;3.80;;;1.77;;
9934;SDS011;5006;41.828;23.478;2023-02-02T00:37:25;3.85;;;1.75;;
9934;SDS011;5006;41.828;23.478;2023-02-02T00:38:30;1.77;;;1.23;;
9934;SDS011;5006;41.828;23.478;2023-02-02T00:39:37;3.45;;;1.70;;
9934;SDS011;5006;41.828;23.478;2023-02-02T00:40:41;2.65;;;1.55;;
9934;SDS011;5006;41.828;23.478;2023-02-02T00:41:47;2.55;;;1.45;;
9934;SDS011;5006;41.828;23.478;2023-02-02T00:42:52;2.53;;;1.60;;
9934;SDS011;5006;41.828;23.478;2023-02-02T00:43:58;3.63;;;1.63;;
9934;SDS011;5006;41.828;23.478;2023-02-02T00:45:20;2.60;;;1.50;;
9934;SDS011;5006;41.828;23.478;2023-02-02T00:46:26;3.22;;;1.77;;
9934;SDS011;5006;41.828;23.478;2023-02-02T00:47:32;2.20;;;1.40;;
9934;SDS011;5006;41.828;23.478;2023-02-02T00:48:36;6.82;;;1.80;;
9934;SDS011;5006;41.828;23.478;2023-02-02T00:49:42;2.38;;;1.52;;
9934;SDS011;5006;41.828;23.478;2023-02-02T00:50:47;2.08;;;1.60;;
9934;SDS011;5006;41.828;23.478;2023-02-02T00:51:52;4.40;;;1.60;;
9934;SDS011;5006;41.828;23.478;2023-02-02T00:52:59;3.72;;;1.35;;
9934;SDS011;5006;41.828;23.478;2023-02-02T00:54:04;1.80;;;1.30;;
9934;SDS011;5006;41.828;23.478;2023-02-02T00:55:09;3.03;;;1.50;;
9934;SDS011;5006;41.828;23.478;2023-02-02T00:56:16;2.35;;;1.55;;
9934;SDS011;5006;41.828;23.478;2023-02-02T00:57:21;2.60;;;1.20;;
9934;SDS011;5006;41.828;23.478;2023-02-02T00:58:26;3.25;;;1.40;;
9934;SDS011;5006;41.828;23.478;2023-02-02T00:59:32;3.25;;;1.50;;
9934;SDS011;5006;41.828;23.478;2023-02-02T01:00:38;2.67;;;1.35;;
9934;SDS011;5006;41.828;23.478;2023-02-02T01:01:43;2.50;;;1.58;;
9934;SDS011;5006;41.828;23.478;2023-02-02T01:02:48;2.33;;;1.40;;
9934;SDS011;5006;41.828;23.478;2023-02-02T01:03:53;2.30;;;1.45;;
9934;SDS011;5006;41.828;23.478;2023-02-02T01:05:00;1.70;;;1.42;;
9934;SDS011;5006;41.828;23.478;2023-02-02T01:06:05;1.92;;;1.60;;
9934;SDS011;5006;41.828;23.478;2023-02-02T01:07:11;1.67;;;1.13;;
9934;SDS011;5006;41.828;23.478;2023-02-02T01:08:17;3.50;;;1.48;;
9934;SDS011;5006;41.828;23.478;2023-02-02T01:09:23;2.53;;;1.48;;
9934;SDS011;5006;41.828;23.478;2023-02-02T01:10:27;1.85;;;1.30;;
9934;SDS011;5006;41.828;23.478;2023-02-02T01:11:33;2.03;;;1.50;;
9934;SDS011;5006;41.828;23.478;2023-02-02T01:12:38;1.75;;;1.23;;
9934;SDS011;5006;41.828;23.478;2023-02-02T01:13:44;3.28;;;1.25;;
9934;SDS011;5006;41.828;23.478;2023-02-02T01:14:48;3.33;;;1.70;;
9934;SDS011;5006;41.828;23.478;2023-02-02T01:15:54;2.30;;;1.70;;
9934;SDS011;5006;41.828;23.478;2023-02-02T01:16:58;3.50;;;2.03;;
9934;SDS011;5006;41.828;23.478;2023-02-02T01:18:04;2.78;;;2.00;;
9934;SDS011;5006;41.828;23.478;2023-02-02T01:19:08;2.83;;;2.20;;
9934;SDS011;5006;41.828;23.478;2023-02-02T01:20:18;3.53;;;1.85;;
9934;SDS011;5006;41.828;23.478;2023-02-02T01:21:23;2.20;;;1.63;;
9934;SDS011;5006;41.828;23.478;2023-02-02T01:22:29;2.90;;;1.70;;
9934;SDS011;5006;41.828;23.478;2023-02-02T01:23:36;2.75;;;1.58;;
9934;SDS011;5006;41.828;23.478;2023-02-02T01:24:42;2.53;;;1.40;;
9934;SDS011;5006;41.828;23.478;2023-02-02T01:25:51;4.80;;;1.50;;
9934;SDS011;5006;41.828;23.478;2023-02-02T01:26:57;3.40;;;1.60;;
9934;SDS011;5006;41.828;23.478;2023-02-02T01:28:02;5.03;;;1.90;;
9934;SDS011;5006;41.828;23.478;2023-02-02T01:29:08;2.83;;;1.40;;
9934;SDS011;5006;41.828;23.478;2023-02-02T01:30:12;5.60;;;1.70;;
9934;SDS011;5006;41.828;23.478;2023-02-02T01:31:18;5.25;;;1.45;;
9934;SDS011;5006;41.828;23.478;2023-02-02T01:32:23;2.75;;;1.67;;
9934;SDS011;5006;41.828;23.478;2023-02-02T01:33:29;4.60;;;1.70;;
9934;SDS011;5006;41.828;23.478;2023-02-02T01:34:33;2.47;;;1.80;;
9934;SDS011;5006;41.828;23.478;2023-02-02T01:35:43;3.50;;;1.40;;
9934;SDS011;5006;41.828;23.478;2023-02-02T01:36:49;2.28;;;1.63;;
9934;SDS011;5006;41.828;23.478;2023-02-02T01:37:54;2.40;;;1.63;;
9934;SDS011;5006;41.828;23.478;2023-02-02T01:39:00;3.33;;;1.70;;
9934;SDS011;5006;41.828;23.478;2023-02-02T01:40:07;1.90;;;1.48;;
9934;SDS011;5006;41.828;23.478;2023-02-02T01:41:13;2.47;;;1.70;;
9934;SDS011;5006;41.828;23.478;2023-02-02T01:42:20;2.83;;;1.50;;
9934;SDS011;5006;41.828;23.478;2023-02-02T01:43:27;2.13;;;1.50;;
9934;SDS011;5006;41.828;23.478;2023-02-02T01:46:09;2.00;;;1.30;;
9934;SDS011;5006;41.828;23.478;2023-02-02T01:47:15;3.08;;;1.63;;
9934;SDS011;5006;41.828;23.478;2023-02-02T01:48:23;5.30;;;1.90;;
9934;SDS011;5006;41.828;23.478;2023-02-02T01:49:30;3.00;;;1.55;;
9934;SDS011;5006;41.828;23.478;2023-02-02T01:50:36;2.53;;;1.63;;
9934;SDS011;5006;41.828;23.478;2023-02-02T01:51:40;1.80;;;1.45;;
9934;SDS011;5006;41.828;23.478;2023-02-02T01:52:50;2.50;;;1.30;;
9934;SDS011;5006;41.828;23.478;2023-02-02T01:53:57;2.33;;;1.60;;
9934;SDS011;5006;41.828;23.478;2023-02-02T01:55:06;3.05;;;1.30;;
9934;SDS011;5006;41.828;23.478;2023-02-02T01:56:16;3.10;;;1.50;;
9934;SDS011;5006;41.828;23.478;2023-02-02T01:57:27;2.65;;;1.50;;
9934;SDS011;5006;41.828;23.478;2023-02-02T01:58:36;1.83;;;1.40;;
9934;SDS011;5006;41.828;23.478;2023-02-02T01:59:44;2.13;;;1.55;;
9934;SDS011;5006;41.828;23.478;2023-02-02T02:00:51;3.95;;;1.40;;
9934;SDS011;5006;41.828;23.478;2023-02-02T02:01:59;1.50;;;1.30;;
9934;SDS011;5006;41.828;23.478;2023-02-02T02:03:04;1.73;;;1.40;;
9934;SDS011;5006;41.828;23.478;2023-02-02T02:04:14;2.33;;;1.40;;
9934;SDS011;5006;41.828;23.478;2023-02-02T02:05:23;2.65;;;1.33;;
9934;SDS011;5006;41.828;23.478;2023-02-02T02:06:32;3.05;;;1.63;;
9934;SDS011;5006;41.828;23.478;2023-02-02T02:07:38;1.90;;;1.50;;
9934;SDS011;5006;41.828;23.478;2023-02-02T02:08:48;2.25;;;1.38;;
9934;SDS011;5006;41.828;23.478;2023-02-02T02:09:55;2.40;;;1.60;;
9934;SDS011;5006;41.828;23.478;2023-02-02T02:11:03;2.30;;;1.58;;
9934;SDS011;5006;41.828;23.478;2023-02-02T02:12:09;2.35;;;1.42;;
9934;SDS011;5006;41.828;23.478;2023-02-02T02:13:19;2.20;;;1.40;;
9934;SDS011;5006;41.828;23.478;2023-02-02T02:14:48;1.70;;;1.40;;
9934;SDS011;5006;41.828;23.478;2023-02-02T02:16:17;2.42;;;1.60;;
9934;SDS011;5006;41.828;23.478;2023-02-02T02:17:34;2.20;;;1.30;;
9934;SDS011;5006;41.828;23.478;2023-02-02T02:18:49;2.40;;;1.30;;
9934;SDS011;5006;41.828;23.478;2023-02-02T02:21:55;2.70;;;1.30;;
9934;SDS011;5006;41.828;23.478;2023-02-02T02:25:39;1.95;;;1.42;;
9934;SDS011;5006;41.828;23.478;2023-02-02T02:29:12;2.00;;;1.30;;
9934;SDS011;5006;41.828;23.478;2023-02-02T02:30:40;2.75;;;1.33;;
9934;SDS011;5006;41.828;23.478;2023-02-02T02:33:35;2.88;;;1.38;;
9934;SDS011;5006;41.828;23.478;2023-02-02T02:34:51;2.40;;;1.60;;
9934;SDS011;5006;41.828;23.478;2023-02-02T02:36:02;2.10;;;1.48;;
9934;SDS011;5006;41.828;23.478;2023-02-02T02:37:15;3.53;;;1.67;;
9934;SDS011;5006;41.828;23.478;2023-02-02T02:38:25;3.63;;;1.83;;
9934;SDS011;5006;41.828;23.478;2023-02-02T02:39:41;5.18;;;2.50;;
9934;SDS011;5006;41.828;23.478;2023-02-02T02:40:52;5.28;;;3.17;;
9934;SDS011;5006;41.828;23.478;2023-02-02T02:42:02;4.53;;;2.83;;
9934;SDS011;5006;41.828;23.478;2023-02-02T02:43:21;4.97;;;3.08;;
9934;SDS011;5006;41.828;23.478;2023-02-02T02:44:32;3.72;;;2.60;;
9934;SDS011;5006;41.828;23.478;2023-02-02T02:45:37;4.53;;;2.60;;
9934;SDS011;5006;41.828;23.478;2023-02-02T02:46:45;4.57;;;2.72;;
9934;SDS011;5006;41.828;23.478;2023-02-02T02:47:52;2.42;;;2.22;;
9934;SDS011;5006;41.828;23.478;2023-02-02T02:48:59;4.18;;;2.53;;
9934;SDS011;5006;41.828;23.478;2023-02-02T02:50:05;3.40;;;2.45;;
9934;SDS011;5006;41.828;23.478;2023-02-02T02:52:45;3.55;;;2.22;;
9934;SDS011;5006;41.828;23.478;2023-02-02T02:53:53;4.30;;;2.30;;
9934;SDS011;5006;41.828;23.478;2023-02-02T02:54:58;4.63;;;2.30;;
9934;SDS011;5006;41.828;23.478;2023-02-02T02:56:08;3.30;;;2.40;;
9934;SDS011;5006;41.828;23.478;2023-02-02T02:57:22;3.15;;;2.40;;
9934;SDS011;5006;41.828;23.478;2023-02-02T02:58:42;3.00;;;2.20;;
9934;SDS011;5006;41.828;23.478;2023-02-02T02:59:55;2.95;;;2.45;;
9934;SDS011;5006;41.828;23.478;2023-02-02T03:01:09;3.42;;;2.75;;
9934;SDS011;5006;41.828;23.478;2023-02-02T03:02:33;3.40;;;2.70;;
9934;SDS011;5006;41.828;23.478;2023-02-02T03:03:45;3.88;;;2.67;;
9934;SDS011;5006;41.828;23.478;2023-02-02T03:05:16;4.20;;;2.92;;
9934;SDS011;5006;41.828;23.478;2023-02-02T03:06:33;3.88;;;2.70;;
9934;SDS011;5006;41.828;23.478;2023-02-02T03:07:43;4.03;;;2.58;;
9934;SDS011;5006;41.828;23.478;2023-02-02T03:08:57;3.25;;;2.40;;
9934;SDS011;5006;41.828;23.478;2023-02-02T03:10:04;3.40;;;2.60;;
9934;SDS011;5006;41.828;23.478;2023-02-02T03:11:12;2.75;;;2.40;;
9934;SDS011;5006;41.828;23.478;2023-02-02T03:12:19;3.15;;;2.58;;
9934;SDS011;5006;41.828;23.478;2023-02-02T03:13:24;3.10;;;2.30;;
9934;SDS011;5006;41.828;23.478;2023-02-02T03:14:33;3.00;;;2.40;;
9934;SDS011;5006;41.828;23.478;2023-02-02T03:15:39;4.47;;;2.90;;
9934;SDS011;5006;41.828;23.478;2023-02-02T03:16:45;3.05;;;2.40;;
9934;SDS011;5006;41.828;23.478;2023-02-02T03:17:50;3.95;;;2.72;;
9934;SDS011;5006;41.828;23.478;2023-02-02T03:18:59;3.38;;;2.60;;
9934;SDS011;5006;41.828;23.478;2023-02-02T03:20:04;4.43;;;2.90;;
9934;SDS011;5006;41.828;23.478;2023-02-02T03:21:10;3.03;;;2.72;;
9934;SDS011;5006;41.828;23.478;2023-02-02T03:22:15;3.78;;;2.70;;
9934;SDS011;5006;41.828;23.478;2023-02-02T03:23:21;2.90;;;2.60;;
9934;SDS011;5006;41.828;23.478;2023-02-02T03:24:26;4.10;;;2.95;;
9934;SDS011;5006;41.828;23.478;2023-02-02T03:25:31;4.40;;;2.72;;
9934;SDS011;5006;41.828;23.478;2023-02-02T03:26:37;3.03;;;2.60;;
9934;SDS011;5006;41.828;23.478;2023-02-02T03:27:43;4.13;;;2.78;;
9934;SDS011;5006;41.828;23.478;2023-02-02T03:28:48;3.30;;;2.95;;
9934;SDS011;5006;41.828;23.478;2023-02-02T03:29:54;3.63;;;2.88;;
9934;SDS011;5006;41.828;23.478;2023-02-02T03:30:59;4.30;;;3.00;;
9934;SDS011;5006;41.828;23.478;2023-02-02T03:32:05;5.03;;;2.70;;
9934;SDS011;5006;41.828;23.478;2023-02-02T03:33:10;4.90;;;3.55;;
9934;SDS011;5006;41.828;23.478;2023-02-02T03:34:18;3.97;;;2.72;;
9934;SDS011;5006;41.828;23.478;2023-02-02T03:35:23;3.80;;;2.88;;
9934;SDS011;5006;41.828;23.478;2023-02-02T03:36:29;4.63;;;2.90;;
9934;SDS011;5006;41.828;23.478;2023-02-02T03:37:35;4.68;;;3.20;;
9934;SDS011;5006;41.828;23.478;2023-02-02T03:38:40;3.47;;;2.88;;
9934;SDS011;5006;41.828;23.478;2023-02-02T03:39:45;4.75;;;3.08;;
9934;SDS011;5006;41.828;23.478;2023-02-02T03:40:51;4.03;;;3.10;;
9934;SDS011;5006;41.828;23.478;2023-02-02T03:41:55;4.35;;;3.10;;
9934;SDS011;5006;41.828;23.478;2023-02-02T03:43:01;4.22;;;3.15;;
9934;SDS011;5006;41.828;23.478;2023-02-02T03:44:05;10.77;;;7.45;;
9934;SDS011;5006;41.828;23.478;2023-02-02T03:45:11;11.63;;;7.47;;
9934;SDS011;5006;41.828;23.478;2023-02-02T03:46:16;13.57;;;7.55;;
9934;SDS011;5006;41.828;23.478;2023-02-02T03:47:22;10.68;;;6.53;;
9934;SDS011;5006;41.828;23.478;2023-02-02T03:48:27;8.77;;;5.05;;
9934;SDS011;5006;41.828;23.478;2023-02-02T03:49:34;5.43;;;3.60;;
9934;SDS011;5006;41.828;23.478;2023-02-02T03:50:39;5.57;;;3.78;;
9934;SDS011;5006;41.828;23.478;2023-02-02T03:51:44;7.88;;;5.25;;
9934;SDS011;5006;41.828;23.478;2023-02-02T03:52:49;7.72;;;5.18;;
9934;SDS011;5006;41.828;23.478;2023-02-02T03:53:55;6.03;;;4.10;;
9934;SDS011;5006;41.828;23.478;2023-02-02T03:54:59;7.18;;;4.68;;
9934;SDS011;5006;41.828;23.478;2023-02-02T03:56:06;6.43;;;4.25;;
9934;SDS011;5006;41.828;23.478;2023-02-02T03:57:10;8.52;;;5.13;;
9934;SDS011;5006;41.828;23.478;2023-02-02T03:58:16;6.20;;;4.22;;
9934;SDS011;5006;41.828;23.478;2023-02-02T03:59:21;6.70;;;4.50;;
9934;SDS011;5006;41.828;23.478;2023-02-02T04:00:27;4.90;;;4.20;;
9934;SDS011;5006;41.828;23.478;2023-02-02T04:01:31;4.03;;;3.10;;
9934;SDS011;5006;41.828;23.478;2023-02-02T04:02:37;4.00;;;2.88;;
9934;SDS011;5006;41.828;23.478;2023-02-02T04:03:41;5.82;;;3.17;;
9934;SDS011;5006;41.828;23.478;2023-02-02T04:04:50;4.90;;;3.33;;
9934;SDS011;5006;41.828;23.478;2023-02-02T04:05:54;5.50;;;3.25;;
9934;SDS011;5006;41.828;23.478;2023-02-02T04:07:00;5.25;;;2.95;;
9934;SDS011;5006;41.828;23.478;2023-02-02T04:08:04;3.95;;;3.30;;
9934;SDS011;5006;41.828;23.478;2023-02-02T04:09:11;3.80;;;3.30;;
9934;SDS011;5006;41.828;23.478;2023-02-02T04:10:15;4.50;;;3.13;;
9934;SDS011;5006;41.828;23.478;2023-02-02T04:11:21;4.90;;;3.30;;
9934;SDS011;5006;41.828;23.478;2023-02-02T04:12:26;4.95;;;3.05;;
9934;SDS011;5006;41.828;23.478;2023-02-02T04:13:33;4.32;;;2.72;;
9934;SDS011;5006;41.828;23.478;2023-02-02T04:14:38;4.38;;;3.20;;
9934;SDS011;5006;41.828;23.478;2023-02-02T04:15:43;4.97;;;3.30;;
9934;SDS011;5006;41.828;23.478;2023-02-02T04:16:49;6.72;;;3.60;;
9934;SDS011;5006;41.828;23.478;2023-02-02T04:17:54;6.10;;;3.67;;
9934;SDS011;5006;41.828;23.478;2023-02-02T04:19:00;5.20;;;3.30;;
9934;SDS011;5006;41.828;23.478;2023-02-02T04:20:07;4.10;;;2.97;;
9934;SDS011;5006;41.828;23.478;2023-02-02T04:21:13;5.10;;;3.10;;
9934;SDS011;5006;41.828;23.478;2023-02-02T04:22:18;5.35;;;3.13;;
9934;SDS011;5006;41.828;23.478;2023-02-02T04:23:23;5.57;;;3.55;;
9934;SDS011;5006;41.828;23.478;2023-02-02T04:24:28;3.88;;;3.17;;
9934;SDS011;5006;41.828;23.478;2023-02-02T04:25:34;3.35;;;2.88;;
9934;SDS011;5006;41.828;23.478;2023-02-02T04:26:38;6.07;;;3.10;;
9934;SDS011;5006;41.828;23.478;2023-02-02T04:27:44;4.07;;;2.90;;
9934;SDS011;5006;41.828;23.478;2023-02-02T04:28:50;4.75;;;3.00;;
9934;SDS011;5006;41.828;23.478;2023-02-02T04:29:56;4.45;;;3.42;;
9934;SDS011;5006;41.828;23.478;2023-02-02T04:31:00;10.95;;;7.00;;
9934;SDS011;5006;41.828;23.478;2023-02-02T04:32:06;13.65;;;10.10;;
9934;SDS011;5006;41.828;23.478;2023-02-02T04:33:10;11.70;;;8.48;;
9934;SDS011;5006;41.828;23.478;2023-02-02T04:34:16;4.45;;;3.53;;
9934;SDS011;5006;41.828;23.478;2023-02-02T04:35:22;4.40;;;3.55;;
9934;SDS011;5006;41.828;23.478;2023-02-02T04:36:28;3.95;;;2.63;;
9934;SDS011;5006;41.828;23.478;2023-02-02T04:37:33;5.82;;;3.90;;
9934;SDS011;5006;41.828;23.478;2023-02-02T04:38:38;6.07;;;3.50;;
9934;SDS011;5006;41.828;23.478;2023-02-02T04:39:44;4.43;;;2.90;;
9934;SDS011;5006;41.828;23.478;2023-02-02T04:40:49;7.45;;;3.45;;
9934;SDS011;5006;41.828;23.478;2023-02-02T04:41:55;6.63;;;3.53;;
9934;SDS011;5006;41.828;23.478;2023-02-02T04:42:59;3.30;;;2.70;;
9934;SDS011;5006;41.828;23.478;2023-02-02T04:44:09;4.70;;;3.10;;
9934;SDS011;5006;41.828;23.478;2023-02-02T04:45:17;4.97;;;3.30;;
9934;SDS011;5006;41.828;23.478;2023-02-02T04:46:23;5.28;;;3.72;;
9934;SDS011;5006;41.828;23.478;2023-02-02T04:47:29;5.95;;;4.00;;
9934;SDS011;5006;41.828;23.478;2023-02-02T04:48:35;8.15;;;3.83;;
9934;SDS011;5006;41.828;23.478;2023-02-02T04:49:39;4.93;;;3.50;;
9934;SDS011;5006;41.828;23.478;2023-02-02T04:50:46;5.28;;;3.40;;
9934;SDS011;5006;41.828;23.478;2023-02-02T04:51:51;4.30;;;2.85;;
9934;SDS011;5006;41.828;23.478;2023-02-02T04:52:56;7.43;;;5.00;;
9934;SDS011;5006;41.828;23.478;2023-02-02T04:54:01;7.55;;;5.10;;
9934;SDS011;5006;41.828;23.478;2023-02-02T04:55:07;7.13;;;5.10;;
9934;SDS011;5006;41.828;23.478;2023-02-02T04:56:14;7.63;;;5.35;;
9934;SDS011;5006;41.828;23.478;2023-02-02T04:57:22;16.08;;;8.85;;
9934;SDS011;5006;41.828;23.478;2023-02-02T04:58:27;16.15;;;11.65;;
9934;SDS011;5006;41.828;23.478;2023-02-02T04:59:32;29.38;;;18.48;;
9934;SDS011;5006;41.828;23.478;2023-02-02T05:00:37;32.63;;;19.77;;
9934;SDS011;5006;41.828;23.478;2023-02-02T05:01:42;33.65;;;20.17;;
9934;SDS011;5006;41.828;23.478;2023-02-02T05:02:47;33.58;;;21.33;;
9934;SDS011;5006;41.828;23.478;2023-02-02T05:03:52;31.13;;;18.90;;
9934;SDS011;5006;41.828;23.478;2023-02-02T05:04:58;38.17;;;23.48;;
9934;SDS011;5006;41.828;23.478;2023-02-02T05:06:05;29.33;;;18.38;;
9934;SDS011;5006;41.828;23.478;2023-02-02T05:07:10;26.27;;;16.45;;
9934;SDS011;5006;41.828;23.478;2023-02-02T05:08:16;26.48;;;16.35;;
9934;SDS011;5006;41.828;23.478;2023-02-02T05:09:21;12.98;;;9.02;;
9934;SDS011;5006;41.828;23.478;2023-02-02T05:10:27;7.18;;;4.40;;
9934;SDS011;5006;41.828;23.478;2023-02-02T05:11:50;13.90;;;8.07;;
9934;SDS011;5006;41.828;23.478;2023-02-02T05:12:55;15.68;;;9.80;;
9934;SDS011;5006;41.828;23.478;2023-02-02T05:14:00;16.88;;;11.10;;
9934;SDS011;5006;41.828;23.478;2023-02-02T05:15:06;19.45;;;13.50;;
9934;SDS011;5006;41.828;23.478;2023-02-02T05:16:13;22.33;;;14.65;;
9934;SDS011;5006;41.828;23.478;2023-02-02T05:17:18;25.23;;;16.60;;
9934;SDS011;5006;41.828;23.478;2023-02-02T05:18:23;23.77;;;15.40;;
9934;SDS011;5006;41.828;23.478;2023-02-02T05:19:28;21.45;;;12.82;;
9934;SDS011;5006;41.828;23.478;2023-02-02T05:20:33;18.48;;;13.23;;
9934;SDS011;5006;41.828;23.478;2023-02-02T05:21:39;11.85;;;8.20;;
9934;SDS011;5006;41.828;23.478;2023-02-02T05:22:47;11.23;;;7.50;;
9934;SDS011;5006;41.828;23.478;2023-02-02T05:23:52;9.00;;;5.97;;
9934;SDS011;5006;41.828;23.478;2023-02-02T05:24:58;9.27;;;6.53;;
9934;SDS011;5006;41.828;23.478;2023-02-02T05:26:02;7.93;;;5.65;;
9934;SDS011;5006;41.828;23.478;2023-02-02T05:27:08;9.65;;;5.80;;
9934;SDS011;5006;41.828;23.478;2023-02-02T05:28:12;9.45;;;5.05;;
9934;SDS011;5006;41.828;23.478;2023-02-02T05:29:18;9.30;;;5.85;;
9934;SDS011;5006;41.828;23.478;2023-02-02T05:30:22;9.02;;;5.80;;
9934;SDS011;5006;41.828;23.478;2023-02-02T05:31:28;9.38;;;6.15;;
9934;SDS011;5006;41.828;23.478;2023-02-02T05:32:34;8.18;;;5.35;;
9934;SDS011;5006;41.828;23.478;2023-02-02T05:33:40;7.75;;;5.70;;
9934;SDS011;5006;41.828;23.478;2023-02-02T05:34:45;10.27;;;5.10;;
9934;SDS011;5006;41.828;23.478;2023-02-02T05:35:50;7.40;;;5.32;;
9934;SDS011;5006;41.828;23.478;2023-02-02T05:36:57;8.23;;;5.68;;
9934;SDS011;5006;41.828;23.478;2023-02-02T05:38:03;6.20;;;4.95;;
9934;SDS011;5006;41.828;23.478;2023-02-02T05:39:08;8.05;;;5.35;;
9934;SDS011;5006;41.828;23.478;2023-02-02T05:40:14;12.90;;;8.18;;
9934;SDS011;5006;41.828;23.478;2023-02-02T05:41:19;9.38;;;6.25;;
9934;SDS011;5006;41.828;23.478;2023-02-02T05:42:24;7.63;;;4.72;;
9934;SDS011;5006;41.828;23.478;2023-02-02T05:43:29;8.90;;;6.30;;
9934;SDS011;5006;41.828;23.478;2023-02-02T05:44:36;10.63;;;7.57;;
9934;SDS011;5006;41.828;23.478;2023-02-02T05:45:40;6.32;;;5.03;;
9934;SDS011;5006;41.828;23.478;2023-02-02T05:46:46;9.95;;;5.85;;
9934;SDS011;5006;41.828;23.478;2023-02-02T05:47:52;10.48;;;5.10;;
9934;SDS011;5006;41.828;23.478;2023-02-02T05:48:57;7.10;;;5.63;;
9934;SDS011;5006;41.828;23.478;2023-02-02T05:50:02;10.50;;;7.20;;
9934;SDS011;5006;41.828;23.478;2023-02-02T05:51:09;13.05;;;8.55;;
9934;SDS011;5006;41.828;23.478;2023-02-02T05:52:20;26.00;;;17.45;;
9934;SDS011;5006;41.828;23.478;2023-02-02T05:53:29;34.83;;;19.48;;
9934;SDS011;5006;41.828;23.478;2023-02-02T05:54:34;36.00;;;21.95;;
9934;SDS011;5006;41.828;23.478;2023-02-02T05:55:40;32.00;;;20.83;;
9934;SDS011;5006;41.828;23.478;2023-02-02T05:56:45;24.90;;;16.20;;
9934;SDS011;5006;41.828;23.478;2023-02-02T05:57:51;21.83;;;13.65;;
9934;SDS011;5006;41.828;23.478;2023-02-02T05:58:56;17.48;;;11.38;;
9934;SDS011;5006;41.828;23.478;2023-02-02T06:00:03;15.43;;;10.20;;
9934;SDS011;5006;41.828;23.478;2023-02-02T06:01:16;15.93;;;10.27;;
9934;SDS011;5006;41.828;23.478;2023-02-02T06:02:22;14.13;;;9.73;;
9934;SDS011;5006;41.828;23.478;2023-02-02T06:03:26;15.00;;;9.68;;
9934;SDS011;5006;41.828;23.478;2023-02-02T06:04:32;21.30;;;12.75;;
9934;SDS011;5006;41.828;23.478;2023-02-02T06:05:38;16.13;;;11.07;;
9934;SDS011;5006;41.828;23.478;2023-02-02T06:06:43;25.58;;;18.00;;
9934;SDS011;5006;41.828;23.478;2023-02-02T06:07:52;26.83;;;14.57;;
9934;SDS011;5006;41.828;23.478;2023-02-02T06:08:57;23.70;;;15.57;;
9934;SDS011;5006;41.828;23.478;2023-02-02T06:10:02;13.77;;;8.35;;
9934;SDS011;5006;41.828;23.478;2023-02-02T06:11:08;12.45;;;8.10;;
9934;SDS011;5006;41.828;23.478;2023-02-02T06:12:15;14.50;;;9.25;;
9934;SDS011;5006;41.828;23.478;2023-02-02T06:13:21;15.45;;;9.50;;
9934;SDS011;5006;41.828;23.478;2023-02-02T06:14:26;18.27;;;10.48;;
9934;SDS011;5006;41.828;23.478;2023-02-02T06:15:32;14.00;;;10.43;;
9934;SDS011;5006;41.828;23.478;2023-02-02T06:16:37;14.02;;;9.18;;
9934;SDS011;5006;41.828;23.478;2023-02-02T06:17:43;11.23;;;7.40;;
9934;SDS011;5006;41.828;23.478;2023-02-02T06:18:48;15.80;;;9.10;;
9934;SDS011;5006;41.828;23.478;2023-02-02T06:19:54;17.55;;;10.32;;
9934;SDS011;5006;41.828;23.478;2023-02-02T06:20:59;32.60;;;19.05;;
9934;SDS011;5006;41.828;23.478;2023-02-02T06:22:05;39.58;;;22.67;;
9934;SDS011;5006;41.828;23.478;2023-02-02T06:23:12;33.20;;;20.17;;
9934;SDS011;5006;41.828;23.478;2023-02-02T06:24:18;22.30;;;13.45;;
9934;SDS011;5006;41.828;23.478;2023-02-02T06:25:23;25.35;;;15.52;;
9934;SDS011;5006;41.828;23.478;2023-02-02T06:26:27;27.33;;;17.20;;
9934;SDS011;5006;41.828;23.478;2023-02-02T06:27:34;28.90;;;16.40;;
9934;SDS011;5006;41.828;23.478;2023-02-02T06:28:39;16.83;;;10.55;;
9934;SDS011;5006;41.828;23.478;2023-02-02T06:29:44;17.13;;;9.50;;
9934;SDS011;5006;41.828;23.478;2023-02-02T06:30:49;37.53;;;22.50;;
9934;SDS011;5006;41.828;23.478;2023-02-02T06:31:54;31.20;;;19.63;;
9934;SDS011;5006;41.828;23.478;2023-02-02T06:32:59;28.10;;;17.35;;
9934;SDS011;5006;41.828;23.478;2023-02-02T06:34:05;28.58;;;18.50;;
9934;SDS011;5006;41.828;23.478;2023-02-02T06:35:11;22.70;;;14.40;;
9934;SDS011;5006;41.828;23.478;2023-02-02T06:36:16;21.52;;;14.32;;
9934;SDS011;5006;41.828;23.478;2023-02-02T06:37:22;25.30;;;17.15;;
9934;SDS011;5006;41.828;23.478;2023-02-02T06:38:28;24.25;;;17.65;;
9934;SDS011;5006;41.828;23.478;2023-02-02T06:39:35;24.92;;;16.60;;
9934;SDS011;5006;41.828;23.478;2023-02-02T06:40:41;15.00;;;10.73;;
9934;SDS011;5006;41.828;23.478;2023-02-02T06:41:46;11.35;;;7.15;;
9934;SDS011;5006;41.828;23.478;2023-02-02T06:42:54;16.45;;;10.25;;
9934;SDS011;5006;41.828;23.478;2023-02-02T06:43:59;19.70;;;13.57;;
9934;SDS011;5006;41.828;23.478;2023-02-02T06:45:06;19.42;;;12.75;;
9934;SDS011;5006;41.828;23.478;2023-02-02T06:46:11;21.50;;;16.42;;
9934;SDS011;5006;41.828;23.478;2023-02-02T06:47:17;21.88;;;13.65;;
9934;SDS011;5006;41.828;23.478;2023-02-02T06:48:23;23.15;;;15.35;;
9934;SDS011;5006;41.828;23.478;2023-02-02T06:49:27;22.60;;;16.05;;
9934;SDS011;5006;41.828;23.478;2023-02-02T06:50:33;17.48;;;12.02;;
9934;SDS011;5006;41.828;23.478;2023-02-02T06:51:38;18.42;;;12.75;;
9934;SDS011;5006;41.828;23.478;2023-02-02T06:52:46;18.08;;;12.95;;
9934;SDS011;5006;41.828;23.478;2023-02-02T06:53:53;16.23;;;10.13;;
9934;SDS011;5006;41.828;23.478;2023-02-02T06:54:59;17.90;;;11.30;;
9934;SDS011;5006;41.828;23.478;2023-02-02T06:56:04;17.20;;;10.85;;
9934;SDS011;5006;41.828;23.478;2023-02-02T06:57:11;7.22;;;4.80;;
9934;SDS011;5006;41.828;23.478;2023-02-02T06:58:16;7.70;;;4.75;;